Time;durP1;ratioP1;P1;durP2;ratioP2;P2;SDS_P1;SDS_P2;PMS_P1;PMS_P2;Temp;Humidity;BMP_temperature;BMP_pressure;BME280_temperature;BME280_humidity;BME280_pressure;Samples;Min_cycle;Max_cycle;Signal;HPM_P1;HPM_P2
2021/04/20 00:00:56;;;;;;;13.03;9.50;;;;;;;6.14;78.81;100346.05;1713092;82;21030;-42
2021/04/20 00:03:25;;;;;;;15.05;9.85;;;;;;;6.14;78.81;100346.05;1709459;80;21384;-42
2021/04/20 00:05:53;;;;;;;19.23;9.98;;;;;;;6.14;78.52;100355.91;1707859;82;21206;-41
2021/04/20 00:08:21;;;;;;;14.50;9.50;;;;;;;6.14;78.64;100347.33;1709999;83;21173;-42
2021/04/20 00:10:48;;;;;;;15.35;10.40;;;;;;;6.09;78.74;100334.92;1708975;83;21167;-42
2021/04/20 00:13:16;;;;;;;16.73;10.72;;;;;;;6.10;78.76;100340.08;1709524;83;21038;-42
2021/04/20 00:15:43;;;;;;;18.80;10.75;;;;;;;6.09;78.87;100337.49;1710482;83;22275;-41
2021/04/20 00:18:11;;;;;;;17.45;10.55;;;;;;;6.07;78.88;100332.79;1717830;80;21109;-41
2021/04/20 00:20:39;;;;;;;15.50;10.93;;;;;;;6.05;78.86;100330.20;1730481;82;21054;-41
2021/04/20 00:23:08;;;;;;;14.83;9.90;;;;;;;6.03;78.91;100328.94;1718436;81;21066;-42
2021/04/20 00:25:36;;;;;;;17.67;11.55;;;;;;;6.00;79.19;100324.19;1718810;82;21090;-41
2021/04/20 00:28:04;;;;;;;17.82;11.20;;;;;;;5.92;79.22;100322.08;1709829;81;21467;-41
2021/04/20 00:30:32;;;;;;;12.78;9.83;;;;;;;5.92;79.22;100322.08;1717292;82;21185;-40
2021/04/20 00:32:59;;;;;;;14.43;10.13;;;;;;;5.88;79.29;100320.80;1726404;82;21059;-40
2021/04/20 00:35:27;;;;;;;16.95;11.00;;;;;;;5.74;79.78;100310.54;1730026;81;21078;-42
2021/04/20 00:37:55;;;;;;;14.65;11.30;;;;;;;5.69;79.66;100306.25;1725798;81;21642;-43
2021/04/20 00:40:22;;;;;;;15.13;11.33;;;;;;;5.66;79.71;100314.80;1709746;82;21275;-41
2021/04/20 00:42:56;;;;;;;19.00;10.28;;;;;;;5.66;79.71;100314.80;1726639;81;21002;-44
2021/04/20 00:45:30;;;;;;;16.80;10.93;;;;;;;5.61;80.26;100310.10;1718081;80;21165;-41
2021/04/20 00:47:58;;;;;;;13.65;10.25;;;;;;;5.58;80.32;100316.52;1734378;82;21003;-42
2021/04/20 00:50:34;;;;;;;13.45;10.80;;;;;;;5.56;80.52;100307.55;1728220;82;21022;-41
2021/04/20 00:53:02;;;;;;;15.40;11.30;;;;;;;5.54;80.64;100303.27;1716663;82;21392;-41
2021/04/20 00:55:32;;;;;;;18.20;10.88;;;;;;;5.53;80.86;100297.70;1731991;81;20971;-42
2021/04/20 00:58:02;;;;;;;11.75;10.18;;;;;;;5.48;80.77;100298.14;1733804;82;21007;-42
2021/04/20 01:00:31;;;;;;;17.48;10.93;;;;;;;5.43;80.93;100295.55;1722100;82;21058;-42
2021/04/20 01:02:59;;;;;;;16.00;11.33;;;;;;;5.37;81.26;100293.84;1718503;81;21185;-41
2021/04/20 01:05:31;;;;;;;15.88;12.10;;;;;;;5.29;81.40;100292.54;1699909;83;21341;-42
2021/04/20 01:08:08;;;;;;;14.83;11.63;;;;;;;5.24;81.56;100285.72;1727105;82;21093;-42
2021/04/20 01:10:38;;;;;;;15.40;11.03;;;;;;;5.18;81.71;100285.27;1722385;82;21026;-42
2021/04/20 01:13:06;;;;;;;13.60;10.75;;;;;;;5.11;82.03;100286.97;1724974;82;21130;-42
2021/04/20 01:15:33;;;;;;;16.50;12.10;;;;;;;5.02;82.53;100283.95;1719448;81;21181;-42
2021/04/20 01:21:14;;;;;;;13.28;11.55;;;;;;;4.99;82.57;100286.97;1776974;79;22702;-40
2021/04/20 01:24:11;;;;;;;15.65;11.55;;;;;;;4.89;83.01;100284.36;1749542;82;21455;-42
2021/04/20 01:26:44;;;;;;;16.80;11.28;;;;;;;4.86;83.04;100282.23;1749553;80;21382;-41
2021/04/20 01:29:11;;;;;;;14.93;11.20;;;;;;;4.78;83.14;100280.92;1749424;81;21575;-41
2021/04/20 01:31:42;;;;;;;15.05;11.65;;;;;;;4.68;83.34;100270.23;1749458;82;21047;-41
2021/04/20 01:34:10;;;;;;;17.00;12.98;;;;;;;4.59;83.43;100269.33;1749451;82;21602;-41
2021/04/20 01:36:38;;;;;;;15.53;11.15;;;;;;;4.50;83.66;100269.72;1749509;82;20979;-42
2021/04/20 01:39:08;;;;;;;13.90;11.22;;;;;;;4.43;83.86;100264.57;1749410;82;21201;-40
2021/04/20 01:41:35;;;;;;;14.70;11.68;;;;;;;4.39;84.20;100256.85;1749400;82;20908;-41
2021/04/20 01:44:04;;;;;;;15.30;11.00;;;;;;;4.36;84.36;100255.56;1749461;82;21623;-41
2021/04/20 01:46:32;;;;;;;16.10;12.93;;;;;;;4.31;84.70;100242.75;1749362;82;21650;-41
2021/04/20 01:48:59;;;;;;;17.17;12.75;;;;;;;4.31;84.70;100242.75;1749391;82;21007;-41
2021/04/20 01:51:27;;;;;;;19.57;12.10;;;;;;;4.30;84.97;100241.88;1749480;81;21398;-42
2021/04/20 01:53:55;;;;;;;15.88;11.88;;;;;;;4.33;85.21;100241.46;1749343;82;21035;-41
2021/04/20 01:56:23;;;;;;;19.07;12.75;;;;;;;4.35;85.27;100239.75;1749412;82;20947;-40
2021/04/20 01:58:51;;;;;;;17.55;12.58;;;;;;;4.34;85.36;100231.23;1720122;82;20983;-42
2021/04/20 02:01:23;;;;;;;18.27;13.20;;;;;;;4.36;85.50;100227.37;1748234;81;21003;-41
2021/04/20 02:03:51;;;;;;;15.35;11.35;;;;;;;4.40;85.65;100226.53;1719666;83;22094;-41
2021/04/20 02:06:21;;;;;;;15.75;11.30;;;;;;;4.44;85.83;100235.97;1719506;83;21030;-41
2021/04/20 02:08:49;;;;;;;14.90;11.50;;;;;;;4.49;86.01;100231.70;1719609;82;21686;-41
2021/04/20 02:11:19;;;;;;;14.90;11.73;;;;;;;4.56;86.11;100227.02;1719546;83;21107;-41
2021/04/20 02:13:46;;;;;;;18.98;12.30;;;;;;;4.60;86.15;100221.03;1719568;83;21061;-41
2021/04/20 02:16:14;;;;;;;13.85;11.65;;;;;;;4.67;86.09;100226.17;1719498;83;21369;-41
2021/04/20 02:18:45;;;;;;;16.15;12.18;;;;;;;4.69;86.10;100215.08;1719493;83;21121;-41
2021/04/20 02:21:13;;;;;;;14.18;11.53;;;;;;;4.73;86.06;100218.08;1720167;83;20994;-41
2021/04/20 02:23:42;;;;;;;15.88;12.23;;;;;;;4.75;85.97;100218.93;1720238;83;21575;-42
2021/04/20 02:26:12;;;;;;;20.37;13.05;;;;;;;4.77;85.95;100218.95;1720302;83;20982;-41
2021/04/20 02:28:40;;;;;;;20.32;13.20;;;;;;;4.78;85.93;100214.24;1720283;83;21372;-42
2021/04/20 02:31:09;;;;;;;16.60;12.60;;;;;;;4.80;85.89;100220.64;1719995;82;20951;-42
2021/04/20 02:33:37;;;;;;;15.75;11.38;;;;;;;4.82;85.84;100212.11;1693122;83;20986;-42
2021/04/20 02:36:06;;;;;;;16.95;11.75;;;;;;;4.85;85.83;100219.80;1719769;83;20970;-42
2021/04/20 02:38:35;;;;;;;16.25;12.63;;;;;;;4.86;85.75;100216.37;1693665;83;21026;-42
2021/04/20 02:41:04;;;;;;;16.60;12.28;;;;;;;4.86;85.72;100215.09;1693610;83;21322;-40
2021/04/20 02:43:33;;;;;;;17.12;11.90;;;;;;;4.87;85.71;100214.69;1719714;83;21081;-40
2021/04/20 02:46:02;;;;;;;17.57;11.83;;;;;;;4.91;85.57;100214.24;1719806;83;21586;-40
2021/04/20 02:48:31;;;;;;;17.67;12.93;;;;;;;4.89;85.48;100209.97;1719768;83;21478;-40
2021/04/20 02:50:59;;;;;;;17.30;12.78;;;;;;;4.91;85.52;100211.68;1719839;83;21014;-42
2021/04/20 02:53:27;;;;;;;16.80;12.73;;;;;;;4.89;85.49;100197.14;1719746;82;21207;-42
2021/04/20 02:55:56;;;;;;;15.28;11.93;;;;;;;4.92;85.44;100201.84;1719724;83;20967;-42
2021/04/20 02:58:27;;;;;;;16.67;13.05;;;;;;;4.94;85.42;100209.14;1719842;83;20951;-42
2021/04/20 03:01:16;;;;;;;15.88;13.05;;;;;;;4.95;85.34;100197.59;1719728;83;21003;-42
2021/04/20 03:03:38;;;;;;;15.28;11.60;;;;;;;4.96;85.30;100195.89;1718414;83;21126;-42
2021/04/20 03:06:06;;;;;;;15.60;12.00;;;;;;;4.96;85.22;100198.45;1719939;83;22265;-40
2021/04/20 03:08:35;;;;;;;17.35;13.13;;;;;;;4.96;84.92;100202.30;1719667;83;21003;-40
2021/04/20 03:11:14;;;;;;;15.05;12.55;;;;;;;4.96;84.92;100202.30;1719785;83;20939;-41
2021/04/20 03:13:44;;;;;;;18.92;11.97;;;;;;;4.95;85.00;100195.02;1719799;82;21503;-42
2021/04/20 03:16:15;;;;;;;19.35;13.50;;;;;;;4.97;84.92;100188.63;1717411;83;21073;-41
2021/04/20 03:18:43;;;;;;;17.05;13.75;;;;;;;4.99;84.87;100181.78;1719855;83;22284;-41
2021/04/20 03:21:17;;;;;;;20.80;14.65;;;;;;;4.99;84.86;100182.62;1710042;83;21035;-41
2021/04/20 03:23:45;;;;;;;22.73;14.28;;;;;;;5.03;84.87;100184.77;1706198;84;20997;-43
2021/04/20 03:26:36;;;;;;;15.28;11.78;;;;;;;5.07;84.83;100185.19;1706217;84;21027;-41
2021/04/20 03:29:07;;;;;;;16.67;12.90;;;;;;;5.11;84.81;100181.77;1706305;84;21055;-41
2021/04/20 03:31:39;;;;;;;19.20;13.95;;;;;;;5.15;84.78;100179.62;1706299;84;22311;-41
2021/04/20 03:34:35;;;;;;;13.58;11.53;;;;;;;5.20;84.79;100185.20;1706133;84;21351;-42
2021/04/20 03:37:07;;;;;;;16.15;11.90;;;;;;;5.21;84.56;100181.78;1706139;83;21086;-41
2021/04/20 03:39:39;;;;;;;14.58;11.70;;;;;;;5.14;84.24;100171.94;1706143;84;21062;-42
2021/04/20 03:42:19;;;;;;;17.77;12.28;;;;;;;5.14;84.24;100171.94;1706188;83;21051;-43
2021/04/20 03:44:50;;;;;;;22.20;12.15;;;;;;;5.14;84.27;100180.92;1706234;83;21213;-43
2021/04/20 03:47:23;;;;;;;20.10;12.73;;;;;;;5.16;84.21;100180.04;1706104;84;20963;-41
2021/04/20 03:49:51;;;;;;;18.70;13.03;;;;;;;5.18;84.26;100177.08;1706215;82;21593;-42
2021/04/20 03:52:29;;;;;;;17.92;12.58;;;;;;;5.26;84.33;100186.03;1686509;84;20964;-42
2021/04/20 03:54:57;;;;;;;16.32;12.23;;;;;;;5.26;84.33;100186.03;1706230;84;21027;-40
2021/04/20 03:57:25;;;;;;;20.68;13.43;;;;;;;5.32;84.03;100187.74;1686271;84;21270;-41
2021/04/20 03:59:53;;;;;;;21.73;15.10;;;;;;;5.38;84.05;100184.32;1706180;84;20983;-41
2021/04/20 04:02:21;;;;;;;19.48;14.33;;;;;;;5.42;83.78;100189.42;1706183;82;20975;-41
2021/04/20 04:04:48;;;;;;;18.23;14.28;;;;;;;5.40;83.64;100182.16;1685816;84;21046;-42
2021/04/20 04:07:17;;;;;;;16.37;12.93;;;;;;;5.37;83.66;100184.73;1706173;84;20972;-40
2021/04/20 04:09:45;;;;;;;16.93;12.82;;;;;;;5.35;83.48;100174.06;1706199;83;21198;-41
2021/04/20 04:12:15;;;;;;;18.07;12.47;;;;;;;5.33;83.50;100165.06;1706149;84;21111;-42
2021/04/20 04:14:42;;;;;;;18.42;12.82;;;;;;;5.30;83.46;100172.77;1686145;84;20952;-41
2021/04/20 04:17:12;;;;;;;17.73;12.68;;;;;;;5.29;83.36;100169.34;1706125;83;21051;-41
2021/04/20 04:19:46;;;;;;;17.75;12.95;;;;;;;5.30;83.52;100168.92;1686973;84;21038;-41
2021/04/20 04:22:16;;;;;;;19.50;13.00;;;;;;;5.32;83.52;100159.51;1706088;82;22078;-41
2021/04/20 04:24:54;;;;;;;18.45;13.75;;;;;;;5.35;83.49;100155.64;1706112;83;20976;-41
2021/04/20 04:27:24;;;;;;;17.98;12.88;;;;;;;5.43;83.58;100151.78;1706232;83;21659;-41
2021/04/20 04:29:54;;;;;;;18.57;13.58;;;;;;;5.53;83.44;100143.19;1706159;84;20971;-41
2021/04/20 04:32:23;;;;;;;16.87;13.30;;;;;;;5.62;83.32;100144.89;1706183;83;20960;-40
2021/04/20 04:34:51;;;;;;;15.15;12.33;;;;;;;5.69;83.17;100143.16;1706144;84;21432;-41
2021/04/20 04:37:18;;;;;;;17.57;12.75;;;;;;;5.74;83.08;100137.57;1706250;82;21599;-41
2021/04/20 04:39:46;;;;;;;19.48;14.45;;;;;;;5.88;82.85;100142.66;1706184;84;21028;-42
2021/04/20 04:42:14;;;;;;;19.00;14.03;;;;;;;5.88;82.85;100142.66;1706121;84;21031;-40
2021/04/20 04:44:41;;;;;;;17.57;13.32;;;;;;;5.94;82.44;100137.52;1650206;84;21039;-40
2021/04/20 04:47:10;;;;;;;17.40;12.75;;;;;;;5.96;82.20;100129.37;1706149;83;21385;-40
2021/04/20 04:49:39;;;;;;;15.48;13.60;;;;;;;5.98;82.16;100126.36;1706156;84;21145;-41
2021/04/20 04:52:07;;;;;;;19.87;12.47;;;;;;;6.00;82.04;100114.36;1706110;84;21078;-42
2021/04/20 04:54:35;;;;;;;19.27;14.40;;;;;;;6.03;81.99;100113.08;1706148;84;20944;-41
2021/04/20 04:57:03;;;;;;;16.23;13.03;;;;;;;6.11;81.92;100109.19;1650232;84;21094;-41
2021/04/20 04:59:31;;;;;;;16.67;12.60;;;;;;;6.15;81.80;100109.59;1686453;84;22269;-41
2021/04/20 05:01:59;;;;;;;14.33;12.58;;;;;;;6.27;81.70;100113.80;1706038;82;21035;-41
2021/04/20 05:04:26;;;;;;;15.45;12.58;;;;;;;6.55;81.56;100113.62;1706154;84;20976;-41
2021/04/20 05:06:56;;;;;;;16.48;13.83;;;;;;;6.55;81.56;100113.62;1706098;83;21027;-42
2021/04/20 05:09:24;;;;;;;17.02;13.08;;;;;;;6.71;81.13;100114.80;1706218;82;21038;-41
2021/04/20 05:11:52;;;;;;;16.55;12.88;;;;;;;6.85;80.48;100114.69;1706166;82;21359;-42
2021/04/20 05:14:21;;;;;;;17.70;11.95;;;;;;;6.94;80.12;100106.88;1706203;84;21071;-40
2021/04/20 05:16:54;;;;;;;16.40;13.45;;;;;;;7.03;79.79;100109.36;1706106;84;21019;-42
2021/04/20 05:19:31;;;;;;;20.50;12.93;;;;;;;7.10;79.30;100102.44;1706020;83;20900;-42
2021/04/20 05:22:00;;;;;;;15.25;12.53;;;;;;;7.13;78.96;100104.97;1706158;83;20956;-41
2021/04/20 05:24:28;;;;;;;25.77;17.45;;;;;;;7.13;78.76;100107.55;1706130;83;21533;-41
2021/04/20 05:26:57;;;;;;;26.30;14.25;;;;;;;7.21;78.94;100106.19;1706084;84;21034;-42
2021/04/20 05:29:25;;;;;;;22.85;14.58;;;;;;;7.37;78.91;100104.76;1706141;84;21053;-42
2021/04/20 05:31:53;;;;;;;16.48;13.93;;;;;;;7.48;78.56;100097.33;1706070;84;21074;-42
2021/04/20 05:34:21;;;;;;;15.18;12.80;;;;;;;7.63;78.26;100096.72;1706127;83;21031;-41
2021/04/20 05:36:49;;;;;;;20.08;13.45;;;;;;;7.77;77.92;100099.13;1706187;84;22255;-42
2021/04/20 05:39:17;;;;;;;22.35;14.45;;;;;;;7.94;77.53;100106.63;1706106;82;20952;-42
2021/04/20 05:41:45;;;;;;;17.73;13.68;;;;;;;8.09;77.30;100105.61;1706071;84;21028;-43
2021/04/20 05:44:14;;;;;;;17.92;13.93;;;;;;;8.23;76.70;100104.55;1706088;83;21070;-41
2021/04/20 05:46:46;;;;;;;17.50;13.68;;;;;;;8.28;76.33;100102.32;1706146;84;21287;-40
2021/04/20 05:49:19;;;;;;;17.98;12.80;;;;;;;8.38;76.07;100093.14;1706107;84;21209;-40
2021/04/20 05:51:47;;;;;;;16.00;12.15;;;;;;;8.46;75.72;100096.03;1706172;84;21474;-41
2021/04/20 05:54:14;;;;;;;17.40;13.40;;;;;;;8.51;75.49;100094.70;1706184;84;21035;-42
2021/04/20 05:56:43;;;;;;;23.42;13.72;;;;;;;8.54;75.00;100093.37;1706116;82;21007;-41
2021/04/20 05:59:14;;;;;;;17.20;13.90;;;;;;;8.56;74.98;100087.74;1706127;84;20940;-40
2021/04/20 06:01:41;;;;;;;33.98;21.35;;;;;;;8.62;74.87;100086.80;1686435;82;21371;-41
2021/04/20 06:04:10;;;;;;;28.20;19.20;;;;;;;8.72;74.56;100095.25;1706126;82;21011;-41
2021/04/20 06:06:40;;;;;;;18.98;14.87;;;;;;;8.72;74.34;100087.50;1706233;82;21588;-41
2021/04/20 06:09:09;;;;;;;18.77;14.05;;;;;;;8.79;74.37;100090.81;1706312;84;20999;-42
2021/04/20 06:11:39;;;;;;;14.68;12.53;;;;;;;8.90;74.07;100083.30;1706233;83;21073;-41
2021/04/20 06:14:07;;;;;;;15.45;13.00;;;;;;;8.98;73.77;100083.17;1706243;83;21535;-41
2021/04/20 06:16:36;;;;;;;16.17;12.33;;;;;;;8.97;72.94;100076.73;1706185;83;20996;-40
2021/04/20 06:19:05;;;;;;;14.38;12.73;;;;;;;8.85;72.73;100076.53;1706228;83;21047;-41
2021/04/20 06:21:34;;;;;;;15.95;12.95;;;;;;;8.72;73.01;100072.86;1709631;83;21003;-43
2021/04/20 06:24:07;;;;;;;18.05;13.35;;;;;;;8.69;73.45;100072.05;1719841;83;21670;-42
2021/04/20 06:26:36;;;;;;;18.80;13.58;;;;;;;8.79;73.48;100069.74;1719742;83;21472;-41
2021/04/20 06:29:04;;;;;;;17.05;11.88;;;;;;;8.89;73.48;100067.86;1719701;83;20916;-41
2021/04/20 06:31:34;;;;;;;15.05;13.30;;;;;;;8.99;73.35;100071.13;1719740;83;20979;-41
2021/04/20 06:34:03;;;;;;;15.53;13.28;;;;;;;9.00;72.98;100064.63;1719646;83;21098;-41
2021/04/20 06:36:31;;;;;;;20.92;13.05;;;;;;;8.97;72.35;100059.95;1719777;83;20951;-41
2021/04/20 06:38:58;;;;;;;14.70;12.03;;;;;;;8.86;72.84;100055.84;1719838;83;21273;-41
2021/04/20 06:41:27;;;;;;;17.23;13.05;;;;;;;8.94;73.12;100065.17;1719673;82;21034;-42
2021/04/20 06:44:14;;;;;;;15.40;13.10;;;;;;;8.96;72.61;100058.25;1719782;83;20904;-43
2021/04/20 06:46:56;;;;;;;17.15;13.25;;;;;;;8.92;72.82;100057.47;1719733;83;21180;-42
2021/04/20 06:49:34;;;;;;;19.40;13.48;;;;;;;8.97;73.24;100058.66;1719816;83;21014;-41
2021/04/20 06:52:05;;;;;;;21.00;13.20;;;;;;;9.01;73.07;100051.30;1719761;82;21268;-41
2021/04/20 06:54:55;;;;;;;21.50;15.45;;;;;;;9.03;73.42;100048.24;1719653;83;21038;-44
2021/04/20 06:57:39;;;;;;;31.37;15.93;;;;;;;9.09;72.87;100046.83;1694055;84;21062;-43
2021/04/20 07:00:19;;;;;;;20.20;14.03;;;;;;;9.19;72.93;100044.92;1847691;76;22765;-42
2021/04/20 07:03:12;;;;;;;17.50;13.95;;;;;;;9.25;72.91;100041.38;1798191;78;21503;-42
2021/04/20 07:06:21;;;;;;;21.95;14.07;;;;;;;9.37;72.19;100028.66;1785584;80;21193;-43
2021/04/20 07:09:09;;;;;;;20.85;15.80;;;;;;;9.51;71.83;100024.51;1785532;80;21005;-42
2021/04/20 07:11:36;;;;;;;25.00;17.52;;;;;;;9.63;71.28;100030.69;1785122;80;20974;-41
2021/04/20 07:14:04;;;;;;;20.32;15.03;;;;;;;9.66;70.87;100016.87;1731032;80;20979;-42
2021/04/20 07:16:39;;;;;;;15.35;13.58;;;;;;;9.64;70.79;100023.34;1785494;80;20911;-42
2021/04/20 07:19:37;;;;;;;21.82;13.88;;;;;;;9.59;70.89;100017.43;1756103;80;21251;-42
2021/04/20 07:22:44;;;;;;;16.32;13.75;;;;;;;9.63;71.25;100013.89;1784326;80;21002;-42
2021/04/20 07:25:58;;;;;;;17.92;14.73;;;;;;;9.69;71.33;100008.58;1755671;80;21039;-42
2021/04/20 07:29:23;;;;;;;19.57;14.30;;;;;;;9.68;71.12;100004.30;1785511;80;20967;-42
2021/04/20 07:32:21;;;;;;;17.80;14.60;;;;;;;9.69;71.35;99989.66;1785653;80;21053;-43
2021/04/20 07:35:12;;;;;;;20.48;15.65;;;;;;;9.74;71.83;99983.94;1785707;80;21258;-42
2021/04/20 07:38:02;;;;;;;20.12;15.43;;;;;;;9.76;72.20;99979.16;1785480;80;20950;-42
2021/04/20 07:40:46;;;;;;;16.87;14.98;;;;;;;9.83;72.18;99977.72;1785415;80;21010;-41
2021/04/20 07:43:50;;;;;;;17.70;14.53;;;;;;;9.90;72.29;99974.09;1785342;80;21068;-41
2021/04/20 07:46:43;;;;;;;21.52;15.40;;;;;;;10.01;72.12;99973.84;1785568;80;21010;-42
2021/04/20 07:49:20;;;;;;;22.13;17.77;;;;;;;10.20;72.15;99970.36;1785495;80;21199;-40
2021/04/20 07:51:57;;;;;;;15.45;13.85;;;;;;;10.42;70.71;99977.63;1785425;80;21026;-42
2021/04/20 07:54:54;;;;;;;18.57;15.30;;;;;;;10.52;69.93;99971.34;1785534;79;21021;-40
2021/04/20 07:57:37;;;;;;;15.17;13.37;;;;;;;10.59;69.82;99976.75;1785610;79;20891;-42
2021/04/20 08:00:15;;;;;;;17.05;13.80;;;;;;;10.74;69.72;99974.66;1785353;79;20926;-41
2021/04/20 08:03:18;;;;;;;17.17;15.35;;;;;;;10.87;69.20;99966.95;1785472;79;21334;-42
2021/04/20 08:05:56;;;;;;;15.00;13.20;;;;;;;11.01;68.58;99965.73;1784473;80;21041;-40
2021/04/20 08:08:44;;;;;;;16.35;13.53;;;;;;;11.11;67.23;99967.59;1785512;80;20970;-41
2021/04/20 08:11:28;;;;;;;15.93;13.35;;;;;;;11.14;66.84;99958.00;1784969;79;20990;-41
2021/04/20 08:14:19;;;;;;;19.12;14.55;;;;;;;11.23;66.23;99962.50;1784273;79;21463;-41
2021/04/20 08:17:12;;;;;;;18.55;13.62;;;;;;;11.33;66.20;99956.18;1784999;80;21106;-41
2021/04/20 08:19:55;;;;;;;17.90;13.50;;;;;;;11.41;66.01;99952.91;1784934;80;21061;-40
2021/04/20 08:22:22;;;;;;;15.90;13.83;;;;;;;11.51;65.52;99949.59;1784949;80;21080;-42
2021/04/20 08:25:12;;;;;;;19.32;15.10;;;;;;;11.65;64.85;99947.87;1784938;79;21022;-42
2021/04/20 08:27:51;;;;;;;19.40;15.10;;;;;;;11.76;64.45;99943.22;1784943;80;20899;-40
2021/04/20 08:30:52;;;;;;;17.42;13.88;;;;;;;11.91;63.35;99938.42;1784943;79;21148;-43
2021/04/20 08:33:28;;;;;;;14.45;12.10;;;;;;;11.98;63.87;99926.94;1784877;80;20962;-42
2021/04/20 08:36:01;;;;;;;18.00;13.30;;;;;;;12.12;62.58;99923.92;1785053;79;21010;-43
2021/04/20 08:38:45;;;;;;;14.87;11.57;;;;;;;12.21;62.37;99922.77;1784978;79;21010;-42
2021/04/20 08:41:44;;;;;;;16.40;12.18;;;;;;;12.30;61.79;99922.48;1785036;80;21822;-42
2021/04/20 08:44:34;;;;;;;15.20;12.85;;;;;;;12.37;61.44;99916.60;1784948;79;21369;-41
2021/04/20 08:47:09;;;;;;;14.05;11.70;;;;;;;12.49;61.09;99919.22;1784818;80;20904;-41
2021/04/20 08:50:07;;;;;;;12.88;11.08;;;;;;;12.47;60.78;99916.70;1784870;79;21113;-42
2021/04/20 08:53:06;;;;;;;13.68;12.18;;;;;;;12.43;60.49;99912.95;1784901;80;20919;-42
2021/04/20 08:55:52;;;;;;;14.18;12.78;;;;;;;12.32;61.02;99911.59;1784933;80;20986;-43
2021/04/20 08:58:37;;;;;;;14.23;11.90;;;;;;;12.28;61.46;99905.25;1743406;80;21212;-42
2021/04/20 09:01:44;;;;;;;8.60;7.50;;;;;;;12.33;61.38;99905.94;1785123;80;20950;-49
2021/04/20 09:04:37;;;;;;;11.43;10.20;;;;;;;12.36;61.21;99900.63;1784741;79;21065;-42
2021/04/20 09:07:29;;;;;;;12.15;9.58;;;;;;;12.49;60.61;99893.27;1784789;79;20963;-41
2021/04/20 09:10:01;;;;;;;12.20;9.58;;;;;;;12.60;59.74;99889.85;1784974;80;21053;-42
2021/04/20 09:12:28;;;;;;;9.80;8.58;;;;;;;12.69;58.95;99883.92;1784984;80;21661;-41
2021/04/20 09:14:58;;;;;;;9.40;8.53;;;;;;;12.76;57.86;99875.03;1784810;80;21065;-43
2021/04/20 09:17:29;;;;;;;8.48;7.67;;;;;;;12.89;57.81;99871.06;1730843;80;20982;-42
2021/04/20 09:20:00;;;;;;;8.03;7.20;;;;;;;13.03;56.82;99871.00;1784676;79;20990;-43
2021/04/20 09:22:53;;;;;;;8.50;6.37;;;;;;;13.10;56.93;99862.06;1784877;80;20947;-42
2021/04/20 09:25:46;;;;;;;11.35;7.10;;;;;;;13.19;55.51;99860.39;1734895;80;21252;-42
2021/04/20 09:28:34;;;;;;;6.78;6.05;;;;;;;13.25;55.38;99856.72;1784801;80;21374;-42
2021/04/20 09:31:10;;;;;;;6.17;5.58;;;;;;;13.37;54.22;99852.80;1784710;80;20992;-41
2021/04/20 09:33:53;;;;;;;6.83;6.12;;;;;;;13.50;54.34;99844.91;1784596;79;20997;-40
2021/04/20 09:36:22;;;;;;;5.87;5.37;;;;;;;13.61;53.57;99847.08;1784916;80;21602;-42
2021/04/20 09:38:51;;;;;;;8.70;6.00;;;;;;;13.76;53.56;99848.20;1784894;79;21186;-42
2021/04/20 09:41:31;;;;;;;6.25;5.65;;;;;;;13.87;52.12;99841.72;1784764;80;21002;-42
2021/04/20 09:44:46;;;;;;;6.62;6.00;;;;;;;13.79;52.37;99839.00;1757938;80;21073;-41
2021/04/20 09:47:39;;;;;;;6.53;5.78;;;;;;;13.71;52.55;99834.55;1784819;80;21045;-41
2021/04/20 09:50:24;;;;;;;6.85;6.15;;;;;;;13.83;52.62;99831.06;1784891;80;20975;-42
2021/04/20 09:53:17;;;;;;;6.05;5.50;;;;;;;13.96;51.56;99822.28;1784849;80;21186;-43
2021/04/20 09:56:19;;;;;;;7.45;5.85;;;;;;;14.01;51.42;99823.75;1784650;80;20942;-41
2021/04/20 09:58:48;;;;;;;12.18;6.70;;;;;;;14.04;51.73;99817.59;1784807;79;21053;-41
2021/04/20 10:01:56;;;;;;;11.40;8.80;;;;;;;14.20;51.57;99816.46;1798420;79;21703;-41
2021/04/20 10:04:42;;;;;;;10.90;8.10;;;;;;;14.27;51.26;99806.16;1799395;78;20951;-42
2021/04/20 10:07:43;;;;;;;9.40;8.10;;;;;;;14.32;51.40;99799.45;1771269;79;21274;-42
2021/04/20 10:10:52;;;;;;;11.93;8.70;;;;;;;14.33;51.67;99805.05;1798804;79;21068;-43
2021/04/20 10:13:55;;;;;;;10.43;9.33;;;;;;;14.33;52.58;99800.70;1799402;79;21053;-41
2021/04/20 10:16:43;;;;;;;13.30;8.75;;;;;;;14.50;52.05;99791.27;1799372;79;20886;-43
2021/04/20 10:19:30;;;;;;;12.47;9.98;;;;;;;14.63;52.26;99782.44;1799414;79;20946;-42
2021/04/20 10:22:28;;;;;;;13.65;10.10;;;;;;;14.73;51.71;99783.75;1773172;79;22319;-43
2021/04/20 10:25:33;;;;;;;21.75;10.38;;;;;;;14.77;52.11;99783.13;1799523;79;20958;-41
2021/04/20 10:28:15;;;;;;;12.20;10.35;;;;;;;14.88;51.44;99781.33;1799339;79;20941;-42
2021/04/20 10:30:44;;;;;;;13.55;10.48;;;;;;;14.90;51.52;99777.75;1799287;79;21061;-42
2021/04/20 10:33:12;;;;;;;11.60;9.75;;;;;;;15.09;51.76;99763.84;1799305;79;20950;-42
2021/04/20 10:35:39;;;;;;;11.73;10.40;;;;;;;15.36;51.46;99776.45;1799387;79;21191;-42
2021/04/20 10:38:13;;;;;;;12.33;9.93;;;;;;;15.44;50.98;99764.34;1799241;79;21093;-41
2021/04/20 10:40:44;;;;;;;10.82;9.60;;;;;;;15.55;50.55;99775.08;1799283;79;21077;-43
2021/04/20 10:43:16;;;;;;;14.30;10.15;;;;;;;15.56;50.54;99754.59;1799248;79;20930;-42
2021/04/20 10:45:43;;;;;;;12.05;10.85;;;;;;;15.48;51.11;99764.09;1799335;79;20906;-41
2021/04/20 10:48:24;;;;;;;11.57;10.38;;;;;;;15.46;51.09;99765.94;1799341;79;21198;-42
2021/04/20 10:50:55;;;;;;;11.12;10.00;;;;;;;15.37;51.26;99748.98;1799241;79;21041;-42
2021/04/20 10:53:30;;;;;;;12.70;9.18;;;;;;;15.28;51.94;99753.80;1799344;79;20930;-41
2021/04/20 10:56:05;;;;;;;11.35;9.68;;;;;;;15.26;52.22;99756.95;1799479;78;20978;-41
2021/04/20 10:58:33;;;;;;;16.65;11.28;;;;;;;15.29;51.96;99748.53;1799497;79;20941;-42
2021/04/20 11:01:01;;;;;;;28.02;17.15;;;;;;;15.32;52.00;99746.24;1745961;79;21330;-42
2021/04/20 11:03:33;;;;;;;16.97;12.03;;;;;;;15.43;51.79;99742.63;1796687;78;21065;-41
2021/04/20 11:06:01;;;;;;;19.87;11.88;;;;;;;15.51;51.42;99737.03;1796836;79;21702;-42
2021/04/20 11:08:41;;;;;;;16.25;10.80;;;;;;;15.54;52.25;99742.09;1796794;79;20954;-42
2021/04/20 11:11:19;;;;;;;12.03;10.70;;;;;;;15.61;51.71;99728.28;1796728;79;21285;-42
2021/04/20 11:13:48;;;;;;;16.65;10.43;;;;;;;15.52;51.07;99736.11;1796854;79;21195;-44
2021/04/20 11:16:26;;;;;;;14.53;12.13;;;;;;;15.34;51.61;99725.67;1796689;79;20994;-43
2021/04/20 11:19:01;;;;;;;14.47;10.20;;;;;;;15.32;52.10;99725.39;1796791;79;21065;-43
2021/04/20 11:21:29;;;;;;;13.03;8.63;;;;;;;15.56;52.33;99723.77;1796848;79;20997;-42
2021/04/20 11:24:04;;;;;;;13.28;8.30;;;;;;;15.84;49.63;99718.43;1796657;78;20918;-43
2021/04/20 11:26:36;;;;;;;10.20;8.03;;;;;;;15.88;49.56;99717.34;1794663;79;21153;-42
2021/04/20 11:29:11;;;;;;;10.28;7.33;;;;;;;15.85;47.59;99706.59;1796755;79;20934;-41
2021/04/20 11:31:46;;;;;;;15.90;7.37;;;;;;;15.69;48.11;99705.24;1796943;79;20930;-43
2021/04/20 11:34:31;;;;;;;9.38;6.28;;;;;;;15.63;47.94;99715.52;1796779;78;20922;-42
2021/04/20 11:37:04;;;;;;;10.43;6.90;;;;;;;15.59;47.11;99711.87;1722280;79;21017;-42
2021/04/20 11:39:43;;;;;;;9.75;6.92;;;;;;;15.48;47.29;99708.03;1796748;79;21197;-42
2021/04/20 11:42:29;;;;;;;8.43;6.67;;;;;;;15.40;47.07;99705.42;1796746;79;21014;-43
2021/04/20 11:45:12;;;;;;;8.10;6.37;;;;;;;15.24;47.29;99707.51;1784346;79;21268;-41
2021/04/20 11:48:15;;;;;;;7.58;6.15;;;;;;;15.07;48.20;99701.83;1794857;79;21001;-42
2021/04/20 11:50:47;;;;;;;12.55;5.83;;;;;;;14.94;48.52;99703.72;1796360;79;20942;-42
2021/04/20 11:53:14;;;;;;;8.60;6.97;;;;;;;14.87;48.64;99687.15;1768343;79;21390;-43
2021/04/20 11:55:45;;;;;;;9.25;6.95;;;;;;;14.80;49.48;99693.14;1796780;78;20962;-42
2021/04/20 11:58:33;;;;;;;8.98;6.67;;;;;;;14.76;49.02;99682.02;1796918;79;21048;-42
2021/04/20 12:01:15;;;;;;;12.13;7.17;;;;;;;14.61;49.89;99688.77;1796743;79;21439;-44